Kezdőlap
METAR-TAF:

METAR-TAF

Repülőterek :

Macomb Municipal Airport

Macomb, Illinois, Amerikai Egyesült Államok

földrajzi szélesség: 40-31-13N, földrajzi hosszúság: 090-39-09W, magasság: 216 m

Jelenlegi meteorológiai megfigyelések

A jelentés 20 perccel ezelõtt készült, 13:55 UTC
Északi szél 8 kt
Hőmérséklet 0°C
Páratartalom 100%
Légköri nyomás 1027 hPa
Látótávolság: 8.0 km
Derült ég
Párásság

METAR: KMQB 041355Z AUTO 36008KT 5SM BR CLR 00/00 A3033 RMK AO2 T00001005

Idő: 08:15 (14:15 UTC)


TAF: hiányzik

Meteorológiai megfigyelések és előrejelzések több, mint 4000 repülőtéren (METAR és TAF jelentéseket).

A térképen piros és sárga pontok jelzik az elérhető meteorológiai állomásokat.

Mozgassa az egeret a pont fölött, hogy megjelenjen az állomás neve.

Azután kattintson az időjárási megfigyelések és előrejelzések megtekintéséhez.

A térkép megváltoztatása: kattintson a fekete keresztel jelölt zöld gombra ráközelítéshez, a vonallal jelölt zöld gombra távolításhoz, vagy a zöld nyilakra a szomszédos térképek eléréséhez.


METAR-TAF: